sensor_id;sensor_type;location;lat;lon;timestamp;P1;durP1;ratioP1;P2;durP2;ratioP2
56075;SDS011;41951;49.022;12.066;2022-09-09T00:00:29;4.00;;;1.77;;
56075;SDS011;41951;49.022;12.066;2022-09-09T00:03:23;4.70;;;1.98;;
56075;SDS011;41951;49.022;12.066;2022-09-09T00:06:02;3.45;;;1.88;;
56075;SDS011;41951;49.022;12.066;2022-09-09T00:11:55;4.35;;;1.80;;
56075;SDS011;41951;49.022;12.066;2022-09-09T00:14:37;3.57;;;1.90;;
56075;SDS011;41951;49.022;12.066;2022-09-09T00:17:09;6.50;;;2.20;;
56075;SDS011;41951;49.022;12.066;2022-09-09T00:19:56;5.35;;;2.40;;
56075;SDS011;41951;49.022;12.066;2022-09-09T00:22:28;6.40;;;3.15;;
56075;SDS011;41951;49.022;12.066;2022-09-09T00:25:10;4.88;;;2.85;;
56075;SDS011;41951;49.022;12.066;2022-09-09T00:30:18;5.53;;;3.47;;
56075;SDS011;41951;49.022;12.066;2022-09-09T00:32:48;5.10;;;3.03;;
56075;SDS011;41951;49.022;12.066;2022-09-09T00:35:18;6.07;;;3.30;;
56075;SDS011;41951;49.022;12.066;2022-09-09T00:37:49;4.95;;;3.30;;
56075;SDS011;41951;49.022;12.066;2022-09-09T00:40:22;7.90;;;2.97;;
56075;SDS011;41951;49.022;12.066;2022-09-09T00:48:56;6.47;;;3.45;;
56075;SDS011;41951;49.022;12.066;2022-09-09T00:52:00;5.22;;;2.90;;
56075;SDS011;41951;49.022;12.066;2022-09-09T00:59:52;9.85;;;3.78;;
56075;SDS011;41951;49.022;12.066;2022-09-09T01:08:39;7.05;;;5.35;;
56075;SDS011;41951;49.022;12.066;2022-09-09T01:11:19;9.30;;;5.45;;
56075;SDS011;41951;49.022;12.066;2022-09-09T01:14:02;10.98;;;6.68;;
56075;SDS011;41951;49.022;12.066;2022-09-09T01:16:45;9.23;;;7.18;;
56075;SDS011;41951;49.022;12.066;2022-09-09T01:19:14;10.43;;;8.23;;
56075;SDS011;41951;49.022;12.066;2022-09-09T01:25:18;11.35;;;7.85;;
56075;SDS011;41951;49.022;12.066;2022-09-09T01:27:51;13.60;;;8.20;;
56075;SDS011;41951;49.022;12.066;2022-09-09T01:30:21;10.48;;;7.68;;
56075;SDS011;41951;49.022;12.066;2022-09-09T01:32:53;10.43;;;7.65;;
56075;SDS011;41951;49.022;12.066;2022-09-09T01:38:19;13.75;;;8.40;;
56075;SDS011;41951;49.022;12.066;2022-09-09T01:40:46;10.15;;;8.15;;
56075;SDS011;41951;49.022;12.066;2022-09-09T01:43:12;10.07;;;7.13;;
56075;SDS011;41951;49.022;12.066;2022-09-09T01:45:39;9.15;;;7.85;;
56075;SDS011;41951;49.022;12.066;2022-09-09T01:48:07;10.18;;;7.88;;
56075;SDS011;41951;49.022;12.066;2022-09-09T01:50:32;12.15;;;8.20;;
56075;SDS011;41951;49.022;12.066;2022-09-09T01:52:59;10.18;;;8.48;;
56075;SDS011;41951;49.022;12.066;2022-09-09T01:55:30;11.38;;;8.27;;
56075;SDS011;41951;49.022;12.066;2022-09-09T02:00:24;10.10;;;8.00;;
56075;SDS011;41951;49.022;12.066;2022-09-09T02:03:00;8.70;;;7.18;;
56075;SDS011;41951;49.022;12.066;2022-09-09T02:05:40;10.52;;;7.38;;
56075;SDS011;41951;49.022;12.066;2022-09-09T02:08:14;9.95;;;6.95;;
56075;SDS011;41951;49.022;12.066;2022-09-09T02:11:12;10.80;;;6.90;;
56075;SDS011;41951;49.022;12.066;2022-09-09T02:13:40;11.30;;;7.22;;
56075;SDS011;41951;49.022;12.066;2022-09-09T02:23:44;9.20;;;7.03;;
56075;SDS011;41951;49.022;12.066;2022-09-09T02:26:13;11.85;;;8.48;;
56075;SDS011;41951;49.022;12.066;2022-09-09T02:28:45;9.85;;;8.05;;
56075;SDS011;41951;49.022;12.066;2022-09-09T02:31:12;9.63;;;7.72;;
56075;SDS011;41951;49.022;12.066;2022-09-09T02:33:41;11.57;;;7.30;;
56075;SDS011;41951;49.022;12.066;2022-09-09T02:36:10;10.23;;;7.57;;
56075;SDS011;41951;49.022;12.066;2022-09-09T02:38:42;10.15;;;8.32;;
56075;SDS011;41951;49.022;12.066;2022-09-09T02:41:16;11.30;;;8.32;;
56075;SDS011;41951;49.022;12.066;2022-09-09T02:43:44;10.98;;;8.38;;
56075;SDS011;41951;49.022;12.066;2022-09-09T02:46:24;10.50;;;7.93;;
56075;SDS011;41951;49.022;12.066;2022-09-09T02:48:57;10.18;;;8.27;;
56075;SDS011;41951;49.022;12.066;2022-09-09T02:51:30;9.82;;;7.43;;
56075;SDS011;41951;49.022;12.066;2022-09-09T02:54:01;9.82;;;7.85;;
56075;SDS011;41951;49.022;12.066;2022-09-09T02:56:36;11.73;;;7.30;;
56075;SDS011;41951;49.022;12.066;2022-09-09T02:59:06;8.77;;;7.20;;
56075;SDS011;41951;49.022;12.066;2022-09-09T03:01:33;10.15;;;7.63;;
56075;SDS011;41951;49.022;12.066;2022-09-09T03:03:58;8.98;;;7.55;;
56075;SDS011;41951;49.022;12.066;2022-09-09T03:06:24;9.63;;;7.50;;
56075;SDS011;41951;49.022;12.066;2022-09-09T03:08:50;9.88;;;7.25;;
56075;SDS011;41951;49.022;12.066;2022-09-09T03:11:16;9.48;;;6.95;;
56075;SDS011;41951;49.022;12.066;2022-09-09T03:13:42;9.40;;;7.63;;
56075;SDS011;41951;49.022;12.066;2022-09-09T03:16:07;11.60;;;8.35;;
56075;SDS011;41951;49.022;12.066;2022-09-09T03:18:33;8.98;;;7.18;;
56075;SDS011;41951;49.022;12.066;2022-09-09T03:20:59;11.63;;;7.30;;
56075;SDS011;41951;49.022;12.066;2022-09-09T03:23:25;11.35;;;7.45;;
56075;SDS011;41951;49.022;12.066;2022-09-09T03:25:51;9.43;;;7.30;;
56075;SDS011;41951;49.022;12.066;2022-09-09T03:28:17;9.90;;;7.38;;
56075;SDS011;41951;49.022;12.066;2022-09-09T03:30:43;9.55;;;7.25;;
56075;SDS011;41951;49.022;12.066;2022-09-09T03:33:09;10.18;;;7.47;;
56075;SDS011;41951;49.022;12.066;2022-09-09T03:35:34;9.82;;;6.93;;
56075;SDS011;41951;49.022;12.066;2022-09-09T03:38:01;9.30;;;7.68;;
56075;SDS011;41951;49.022;12.066;2022-09-09T03:40:26;9.77;;;7.75;;
56075;SDS011;41951;49.022;12.066;2022-09-09T03:42:52;7.93;;;7.00;;
56075;SDS011;41951;49.022;12.066;2022-09-09T03:45:18;12.82;;;7.65;;
56075;SDS011;41951;49.022;12.066;2022-09-09T03:47:43;9.77;;;7.53;;
56075;SDS011;41951;49.022;12.066;2022-09-09T03:50:09;11.55;;;8.13;;
56075;SDS011;41951;49.022;12.066;2022-09-09T03:52:39;11.70;;;7.30;;
56075;SDS011;41951;49.022;12.066;2022-09-09T03:55:06;11.50;;;7.80;;
56075;SDS011;41951;49.022;12.066;2022-09-09T03:57:33;9.82;;;7.90;;
56075;SDS011;41951;49.022;12.066;2022-09-09T04:00:00;11.55;;;7.97;;
56075;SDS011;41951;49.022;12.066;2022-09-09T04:02:30;12.00;;;8.40;;
56075;SDS011;41951;49.022;12.066;2022-09-09T04:04:55;11.90;;;8.10;;
56075;SDS011;41951;49.022;12.066;2022-09-09T04:07:21;9.43;;;7.32;;
56075;SDS011;41951;49.022;12.066;2022-09-09T04:09:46;12.27;;;7.70;;
56075;SDS011;41951;49.022;12.066;2022-09-09T04:12:12;9.93;;;7.85;;
56075;SDS011;41951;49.022;12.066;2022-09-09T04:14:38;9.40;;;6.97;;
56075;SDS011;41951;49.022;12.066;2022-09-09T04:17:03;12.55;;;7.72;;
56075;SDS011;41951;49.022;12.066;2022-09-09T04:19:31;10.60;;;8.20;;
56075;SDS011;41951;49.022;12.066;2022-09-09T04:21:57;11.85;;;8.80;;
56075;SDS011;41951;49.022;12.066;2022-09-09T04:24:22;12.82;;;7.78;;
56075;SDS011;41951;49.022;12.066;2022-09-09T04:26:48;9.65;;;7.50;;
56075;SDS011;41951;49.022;12.066;2022-09-09T04:29:14;14.75;;;8.70;;
56075;SDS011;41951;49.022;12.066;2022-09-09T04:31:39;10.70;;;8.38;;
56075;SDS011;41951;49.022;12.066;2022-09-09T04:34:07;10.80;;;8.35;;
56075;SDS011;41951;49.022;12.066;2022-09-09T04:36:35;11.77;;;7.57;;
56075;SDS011;41951;49.022;12.066;2022-09-09T04:39:01;11.32;;;8.27;;
56075;SDS011;41951;49.022;12.066;2022-09-09T04:41:27;9.43;;;7.07;;
56075;SDS011;41951;49.022;12.066;2022-09-09T04:43:53;19.65;;;8.40;;
56075;SDS011;41951;49.022;12.066;2022-09-09T04:46:20;11.68;;;7.47;;
56075;SDS011;41951;49.022;12.066;2022-09-09T04:48:46;11.52;;;8.10;;
56075;SDS011;41951;49.022;12.066;2022-09-09T04:51:12;12.13;;;7.90;;
56075;SDS011;41951;49.022;12.066;2022-09-09T04:53:39;9.98;;;8.35;;
56075;SDS011;41951;49.022;12.066;2022-09-09T04:56:06;10.60;;;8.88;;
56075;SDS011;41951;49.022;12.066;2022-09-09T04:58:35;9.85;;;6.72;;
56075;SDS011;41951;49.022;12.066;2022-09-09T05:01:02;10.20;;;8.02;;
56075;SDS011;41951;49.022;12.066;2022-09-09T05:06:02;12.43;;;9.20;;
56075;SDS011;41951;49.022;12.066;2022-09-09T05:10:54;11.90;;;9.65;;
56075;SDS011;41951;49.022;12.066;2022-09-09T05:13:20;15.43;;;9.15;;
56075;SDS011;41951;49.022;12.066;2022-09-09T05:15:54;13.18;;;8.73;;
56075;SDS011;41951;49.022;12.066;2022-09-09T05:18:20;11.70;;;8.45;;
56075;SDS011;41951;49.022;12.066;2022-09-09T05:20:47;12.43;;;8.27;;
56075;SDS011;41951;49.022;12.066;2022-09-09T05:23:13;9.32;;;7.68;;
56075;SDS011;41951;49.022;12.066;2022-09-09T05:25:39;9.45;;;7.32;;
56075;SDS011;41951;49.022;12.066;2022-09-09T05:28:05;11.07;;;7.80;;
56075;SDS011;41951;49.022;12.066;2022-09-09T05:30:32;9.80;;;7.10;;
56075;SDS011;41951;49.022;12.066;2022-09-09T05:32:58;9.70;;;7.07;;
56075;SDS011;41951;49.022;12.066;2022-09-09T05:35:24;9.63;;;7.15;;
56075;SDS011;41951;49.022;12.066;2022-09-09T05:37:53;11.32;;;7.35;;
56075;SDS011;41951;49.022;12.066;2022-09-09T05:40:23;11.23;;;6.53;;
56075;SDS011;41951;49.022;12.066;2022-09-09T05:42:49;16.92;;;8.45;;
56075;SDS011;41951;49.022;12.066;2022-09-09T05:45:15;10.50;;;7.28;;
56075;SDS011;41951;49.022;12.066;2022-09-09T05:47:40;9.32;;;7.35;;
56075;SDS011;41951;49.022;12.066;2022-09-09T05:50:06;9.85;;;7.20;;
56075;SDS011;41951;49.022;12.066;2022-09-09T05:52:32;9.18;;;6.85;;
56075;SDS011;41951;49.022;12.066;2022-09-09T05:54:58;9.38;;;7.18;;
56075;SDS011;41951;49.022;12.066;2022-09-09T05:57:24;9.30;;;6.85;;
56075;SDS011;41951;49.022;12.066;2022-09-09T05:59:50;10.25;;;7.22;;
56075;SDS011;41951;49.022;12.066;2022-09-09T06:02:15;8.27;;;6.90;;
56075;SDS011;41951;49.022;12.066;2022-09-09T06:04:41;9.98;;;7.35;;
56075;SDS011;41951;49.022;12.066;2022-09-09T06:07:07;8.82;;;6.88;;
56075;SDS011;41951;49.022;12.066;2022-09-09T06:09:32;9.00;;;6.90;;
56075;SDS011;41951;49.022;12.066;2022-09-09T06:11:58;12.88;;;7.45;;
56075;SDS011;41951;49.022;12.066;2022-09-09T06:14:23;11.45;;;7.10;;
56075;SDS011;41951;49.022;12.066;2022-09-09T06:16:50;11.15;;;6.15;;
56075;SDS011;41951;49.022;12.066;2022-09-09T06:19:16;9.43;;;6.05;;
56075;SDS011;41951;49.022;12.066;2022-09-09T06:21:42;11.70;;;7.63;;
56075;SDS011;41951;49.022;12.066;2022-09-09T06:24:09;8.90;;;6.90;;
56075;SDS011;41951;49.022;12.066;2022-09-09T06:26:36;10.20;;;6.68;;
56075;SDS011;41951;49.022;12.066;2022-09-09T06:29:06;9.95;;;6.25;;
56075;SDS011;41951;49.022;12.066;2022-09-09T06:31:33;7.97;;;6.60;;
56075;SDS011;41951;49.022;12.066;2022-09-09T06:34:02;8.65;;;6.95;;
56075;SDS011;41951;49.022;12.066;2022-09-09T06:36:36;7.60;;;6.07;;
56075;SDS011;41951;49.022;12.066;2022-09-09T06:39:03;8.13;;;6.53;;
56075;SDS011;41951;49.022;12.066;2022-09-09T06:41:31;9.90;;;5.97;;
56075;SDS011;41951;49.022;12.066;2022-09-09T06:43:58;9.88;;;6.60;;
56075;SDS011;41951;49.022;12.066;2022-09-09T06:46:25;17.23;;;11.05;;
56075;SDS011;41951;49.022;12.066;2022-09-09T06:48:56;10.98;;;7.63;;
56075;SDS011;41951;49.022;12.066;2022-09-09T06:51:24;10.48;;;7.35;;
56075;SDS011;41951;49.022;12.066;2022-09-09T06:54:01;10.63;;;7.15;;
56075;SDS011;41951;49.022;12.066;2022-09-09T06:56:34;9.85;;;6.65;;
56075;SDS011;41951;49.022;12.066;2022-09-09T06:59:02;10.95;;;7.68;;
56075;SDS011;41951;49.022;12.066;2022-09-09T07:01:31;9.80;;;6.43;;
56075;SDS011;41951;49.022;12.066;2022-09-09T07:03:58;14.95;;;7.70;;
56075;SDS011;41951;49.022;12.066;2022-09-09T07:06:31;12.98;;;6.68;;
56075;SDS011;41951;49.022;12.066;2022-09-09T07:09:03;8.95;;;7.13;;
56075;SDS011;41951;49.022;12.066;2022-09-09T07:11:36;12.43;;;6.82;;
56075;SDS011;41951;49.022;12.066;2022-09-09T07:14:07;16.40;;;7.70;;
56075;SDS011;41951;49.022;12.066;2022-09-09T07:16:33;10.27;;;7.18;;
56075;SDS011;41951;49.022;12.066;2022-09-09T07:19:02;11.88;;;6.80;;
56075;SDS011;41951;49.022;12.066;2022-09-09T07:21:28;9.63;;;7.18;;
56075;SDS011;41951;49.022;12.066;2022-09-09T07:23:55;13.20;;;7.00;;
56075;SDS011;41951;49.022;12.066;2022-09-09T07:26:22;12.68;;;7.15;;
56075;SDS011;41951;49.022;12.066;2022-09-09T07:28:50;9.70;;;7.53;;
56075;SDS011;41951;49.022;12.066;2022-09-09T07:31:17;10.13;;;7.28;;
56075;SDS011;41951;49.022;12.066;2022-09-09T07:33:44;9.75;;;6.78;;
56075;SDS011;41951;49.022;12.066;2022-09-09T07:36:23;10.20;;;6.13;;
56075;SDS011;41951;49.022;12.066;2022-09-09T07:38:58;9.85;;;6.47;;
56075;SDS011;41951;49.022;12.066;2022-09-09T07:41:28;9.90;;;7.07;;
56075;SDS011;41951;49.022;12.066;2022-09-09T07:44:08;12.38;;;7.65;;
56075;SDS011;41951;49.022;12.066;2022-09-09T07:46:37;8.85;;;6.95;;
56075;SDS011;41951;49.022;12.066;2022-09-09T07:49:04;8.15;;;6.45;;
56075;SDS011;41951;49.022;12.066;2022-09-09T07:51:31;9.10;;;6.60;;
56075;SDS011;41951;49.022;12.066;2022-09-09T07:53:59;10.85;;;6.85;;
56075;SDS011;41951;49.022;12.066;2022-09-09T07:56:27;8.68;;;6.85;;
56075;SDS011;41951;49.022;12.066;2022-09-09T07:58:54;13.77;;;6.40;;
56075;SDS011;41951;49.022;12.066;2022-09-09T08:01:25;8.20;;;6.55;;
56075;SDS011;41951;49.022;12.066;2022-09-09T08:06:29;7.30;;;5.75;;
56075;SDS011;41951;49.022;12.066;2022-09-09T08:09:01;8.93;;;6.40;;
56075;SDS011;41951;49.022;12.066;2022-09-09T08:11:28;10.90;;;6.50;;
56075;SDS011;41951;49.022;12.066;2022-09-09T08:13:55;9.95;;;6.70;;
56075;SDS011;41951;49.022;12.066;2022-09-09T08:16:22;9.95;;;5.50;;
56075;SDS011;41951;49.022;12.066;2022-09-09T08:18:49;9.07;;;6.10;;
56075;SDS011;41951;49.022;12.066;2022-09-09T08:21:23;7.72;;;5.97;;
56075;SDS011;41951;49.022;12.066;2022-09-09T08:23:52;8.82;;;5.97;;
56075;SDS011;41951;49.022;12.066;2022-09-09T08:26:19;8.57;;;5.75;;
56075;SDS011;41951;49.022;12.066;2022-09-09T08:28:49;8.80;;;5.63;;
56075;SDS011;41951;49.022;12.066;2022-09-09T08:31:17;8.07;;;5.10;;
56075;SDS011;41951;49.022;12.066;2022-09-09T08:33:46;6.45;;;4.65;;
56075;SDS011;41951;49.022;12.066;2022-09-09T08:36:13;8.18;;;5.70;;
56075;SDS011;41951;49.022;12.066;2022-09-09T08:38:40;7.60;;;4.63;;
56075;SDS011;41951;49.022;12.066;2022-09-09T08:43:42;9.35;;;4.90;;
56075;SDS011;41951;49.022;12.066;2022-09-09T08:46:13;7.82;;;4.70;;
56075;SDS011;41951;49.022;12.066;2022-09-09T08:51:31;7.75;;;5.30;;
56075;SDS011;41951;49.022;12.066;2022-09-09T08:53:58;6.93;;;4.43;;
56075;SDS011;41951;49.022;12.066;2022-09-09T08:56:27;6.03;;;3.22;;
56075;SDS011;41951;49.022;12.066;2022-09-09T08:58:56;15.27;;;9.73;;
56075;SDS011;41951;49.022;12.066;2022-09-09T09:01:28;5.70;;;4.13;;
56075;SDS011;41951;49.022;12.066;2022-09-09T09:04:24;7.07;;;3.28;;
56075;SDS011;41951;49.022;12.066;2022-09-09T09:12:20;4.68;;;2.97;;
56075;SDS011;41951;49.022;12.066;2022-09-09T09:14:49;7.25;;;3.42;;
56075;SDS011;41951;49.022;12.066;2022-09-09T09:17:18;8.60;;;3.50;;
56075;SDS011;41951;49.022;12.066;2022-09-09T09:19:46;7.63;;;3.03;;
56075;SDS011;41951;49.022;12.066;2022-09-09T09:27:44;5.35;;;2.80;;
56075;SDS011;41951;49.022;12.066;2022-09-09T09:30:35;6.60;;;2.92;;
56075;SDS011;41951;49.022;12.066;2022-09-09T09:35:51;7.82;;;3.17;;
56075;SDS011;41951;49.022;12.066;2022-09-09T09:38:25;7.78;;;2.78;;
56075;SDS011;41951;49.022;12.066;2022-09-09T09:40:54;7.60;;;3.08;;
56075;SDS011;41951;49.022;12.066;2022-09-09T09:43:32;8.23;;;4.30;;
56075;SDS011;41951;49.022;12.066;2022-09-09T09:46:05;7.43;;;3.55;;
56075;SDS011;41951;49.022;12.066;2022-09-09T09:48:43;4.72;;;3.10;;
56075;SDS011;41951;49.022;12.066;2022-09-09T09:51:10;5.60;;;3.03;;
56075;SDS011;41951;49.022;12.066;2022-09-09T09:53:40;5.63;;;3.13;;
56075;SDS011;41951;49.022;12.066;2022-09-09T10:01:44;7.20;;;3.05;;
56075;SDS011;41951;49.022;12.066;2022-09-09T10:04:14;5.03;;;3.25;;
56075;SDS011;41951;49.022;12.066;2022-09-09T10:06:43;6.65;;;4.13;;
56075;SDS011;41951;49.022;12.066;2022-09-09T10:11:44;5.05;;;2.30;;
56075;SDS011;41951;49.022;12.066;2022-09-09T10:14:21;4.82;;;2.20;;
56075;SDS011;41951;49.022;12.066;2022-09-09T10:17:32;5.43;;;2.65;;
56075;SDS011;41951;49.022;12.066;2022-09-09T10:22:51;2.80;;;1.90;;
56075;SDS011;41951;49.022;12.066;2022-09-09T10:25:29;4.15;;;1.92;;
56075;SDS011;41951;49.022;12.066;2022-09-09T10:28:04;19.60;;;11.43;;
56075;SDS011;41951;49.022;12.066;2022-09-09T10:30:57;5.55;;;2.83;;
56075;SDS011;41951;49.022;12.066;2022-09-09T10:38:52;3.08;;;1.77;;
56075;SDS011;41951;49.022;12.066;2022-09-09T10:55:41;4.97;;;1.80;;
56075;SDS011;41951;49.022;12.066;2022-09-09T10:58:13;3.53;;;1.48;;
56075;SDS011;41951;49.022;12.066;2022-09-09T11:00:47;2.83;;;1.70;;
56075;SDS011;41951;49.022;12.066;2022-09-09T11:03:22;4.10;;;1.85;;
56075;SDS011;41951;49.022;12.066;2022-09-09T11:10:59;3.63;;;1.73;;
56075;SDS011;41951;49.022;12.066;2022-09-09T11:13:49;5.55;;;1.60;;
56075;SDS011;41951;49.022;12.066;2022-09-09T11:21:53;4.20;;;1.50;;
56075;SDS011;41951;49.022;12.066;2022-09-09T11:32:54;2.95;;;1.40;;
56075;SDS011;41951;49.022;12.066;2022-09-09T11:35:59;4.22;;;1.40;;
56075;SDS011;41951;49.022;12.066;2022-09-09T11:38:51;2.78;;;1.40;;
56075;SDS011;41951;49.022;12.066;2022-09-09T11:41:20;3.63;;;1.63;;
56075;SDS011;41951;49.022;12.066;2022-09-09T11:43:47;3.53;;;1.67;;
56075;SDS011;41951;49.022;12.066;2022-09-09T11:46:17;5.43;;;1.55;;
56075;SDS011;41951;49.022;12.066;2022-09-09T11:48:59;3.70;;;1.42;;
56075;SDS011;41951;49.022;12.066;2022-09-09T11:51:27;3.17;;;1.50;;
56075;SDS011;41951;49.022;12.066;2022-09-09T11:53:56;2.78;;;1.48;;
56075;SDS011;41951;49.022;12.066;2022-09-09T11:56:30;4.07;;;1.65;;
56075;SDS011;41951;49.022;12.066;2022-09-09T11:58:57;3.20;;;1.33;;
56075;SDS011;41951;49.022;12.066;2022-09-09T12:04:17;3.78;;;1.30;;
56075;SDS011;41951;49.022;12.066;2022-09-09T12:12:29;3.28;;;1.45;;
56075;SDS011;41951;49.022;12.066;2022-09-09T12:17:26;3.92;;;1.42;;
56075;SDS011;41951;49.022;12.066;2022-09-09T12:20:03;4.57;;;1.67;;
56075;SDS011;41951;49.022;12.066;2022-09-09T12:28:35;3.83;;;1.50;;
56075;SDS011;41951;49.022;12.066;2022-09-09T12:31:48;5.72;;;1.50;;
56075;SDS011;41951;49.022;12.066;2022-09-09T12:37:06;2.85;;;1.40;;
56075;SDS011;41951;49.022;12.066;2022-09-09T12:39:54;3.05;;;1.60;;
56075;SDS011;41951;49.022;12.066;2022-09-09T12:42:21;5.18;;;1.67;;
56075;SDS011;41951;49.022;12.066;2022-09-09T12:44:52;3.85;;;1.83;;
56075;SDS011;41951;49.022;12.066;2022-09-09T12:47:23;3.28;;;1.50;;
56075;SDS011;41951;49.022;12.066;2022-09-09T12:52:54;3.17;;;1.50;;
56075;SDS011;41951;49.022;12.066;2022-09-09T12:55:34;3.67;;;1.73;;
56075;SDS011;41951;49.022;12.066;2022-09-09T12:58:02;4.82;;;1.70;;
56075;SDS011;41951;49.022;12.066;2022-09-09T13:00:30;5.40;;;1.73;;
56075;SDS011;41951;49.022;12.066;2022-09-09T13:03:02;3.60;;;1.58;;
56075;SDS011;41951;49.022;12.066;2022-09-09T13:05:41;4.95;;;1.80;;
56075;SDS011;41951;49.022;12.066;2022-09-09T13:08:11;3.20;;;1.83;;
56075;SDS011;41951;49.022;12.066;2022-09-09T13:13:26;3.90;;;1.40;;
56075;SDS011;41951;49.022;12.066;2022-09-09T13:15:58;16.13;;;11.13;;
56075;SDS011;41951;49.022;12.066;2022-09-09T13:18:34;4.10;;;1.90;;
56075;SDS011;41951;49.022;12.066;2022-09-09T13:21:03;2.97;;;1.58;;
56075;SDS011;41951;49.022;12.066;2022-09-09T13:23:29;2.55;;;1.30;;
56075;SDS011;41951;49.022;12.066;2022-09-09T13:26:01;5.30;;;1.55;;
56075;SDS011;41951;49.022;12.066;2022-09-09T13:28:29;6.10;;;3.28;;
56075;SDS011;41951;49.022;12.066;2022-09-09T13:30:59;3.78;;;1.30;;
56075;SDS011;41951;49.022;12.066;2022-09-09T13:33:34;3.95;;;1.30;;
56075;SDS011;41951;49.022;12.066;2022-09-09T13:38:36;3.30;;;1.17;;
56075;SDS011;41951;49.022;12.066;2022-09-09T13:41:11;3.35;;;1.20;;
56075;SDS011;41951;49.022;12.066;2022-09-09T13:43:46;2.33;;;1.17;;
56075;SDS011;41951;49.022;12.066;2022-09-09T13:46:26;3.50;;;1.33;;
56075;SDS011;41951;49.022;12.066;2022-09-09T13:49:02;5.05;;;1.75;;
56075;SDS011;41951;49.022;12.066;2022-09-09T13:51:43;3.45;;;1.65;;
56075;SDS011;41951;49.022;12.066;2022-09-09T13:54:12;7.28;;;1.70;;
56075;SDS011;41951;49.022;12.066;2022-09-09T13:56:40;4.35;;;1.70;;
56075;SDS011;41951;49.022;12.066;2022-09-09T13:59:10;3.45;;;1.58;;
56075;SDS011;41951;49.022;12.066;2022-09-09T14:01:37;3.30;;;1.50;;
56075;SDS011;41951;49.022;12.066;2022-09-09T14:04:03;3.10;;;1.60;;
56075;SDS011;41951;49.022;12.066;2022-09-09T14:06:30;7.53;;;4.38;;
56075;SDS011;41951;49.022;12.066;2022-09-09T14:08:57;5.90;;;1.75;;
56075;SDS011;41951;49.022;12.066;2022-09-09T14:11:23;3.80;;;1.50;;
56075;SDS011;41951;49.022;12.066;2022-09-09T14:13:48;2.47;;;1.20;;
56075;SDS011;41951;49.022;12.066;2022-09-09T14:16:15;2.53;;;1.42;;
56075;SDS011;41951;49.022;12.066;2022-09-09T14:18:42;4.97;;;1.48;;
56075;SDS011;41951;49.022;12.066;2022-09-09T14:21:09;5.18;;;1.33;;
56075;SDS011;41951;49.022;12.066;2022-09-09T14:23:34;2.92;;;1.23;;
56075;SDS011;41951;49.022;12.066;2022-09-09T14:26:00;2.63;;;1.25;;
56075;SDS011;41951;49.022;12.066;2022-09-09T14:28:26;4.85;;;1.13;;
56075;SDS011;41951;49.022;12.066;2022-09-09T14:30:53;2.60;;;1.45;;
56075;SDS011;41951;49.022;12.066;2022-09-09T14:33:19;2.53;;;1.30;;
56075;SDS011;41951;49.022;12.066;2022-09-09T14:35:44;3.25;;;1.65;;
56075;SDS011;41951;49.022;12.066;2022-09-09T14:38:10;4.95;;;1.30;;
56075;SDS011;41951;49.022;12.066;2022-09-09T14:40:36;3.30;;;1.30;;
56075;SDS011;41951;49.022;12.066;2022-09-09T14:43:03;2.63;;;1.15;;
56075;SDS011;41951;49.022;12.066;2022-09-09T14:45:30;2.92;;;1.23;;
56075;SDS011;41951;49.022;12.066;2022-09-09T14:47:57;2.25;;;1.20;;
56075;SDS011;41951;49.022;12.066;2022-09-09T14:50:22;2.53;;;1.27;;
56075;SDS011;41951;49.022;12.066;2022-09-09T14:52:49;3.85;;;1.52;;
56075;SDS011;41951;49.022;12.066;2022-09-09T14:55:15;5.13;;;1.50;;
56075;SDS011;41951;49.022;12.066;2022-09-09T14:57:41;3.65;;;1.70;;
56075;SDS011;41951;49.022;12.066;2022-09-09T15:00:07;4.30;;;1.92;;
56075;SDS011;41951;49.022;12.066;2022-09-09T15:02:34;5.28;;;1.77;;
56075;SDS011;41951;49.022;12.066;2022-09-09T15:05:00;5.57;;;1.80;;
56075;SDS011;41951;49.022;12.066;2022-09-09T15:07:26;3.42;;;1.40;;
56075;SDS011;41951;49.022;12.066;2022-09-09T15:09:53;3.58;;;1.50;;
56075;SDS011;41951;49.022;12.066;2022-09-09T15:12:19;3.63;;;1.40;;
56075;SDS011;41951;49.022;12.066;2022-09-09T15:14:45;3.63;;;1.42;;
56075;SDS011;41951;49.022;12.066;2022-09-09T15:17:12;4.65;;;1.45;;
56075;SDS011;41951;49.022;12.066;2022-09-09T15:19:38;4.50;;;1.38;;
56075;SDS011;41951;49.022;12.066;2022-09-09T15:22:04;3.83;;;1.33;;
56075;SDS011;41951;49.022;12.066;2022-09-09T15:24:33;3.38;;;1.90;;
56075;SDS011;41951;49.022;12.066;2022-09-09T15:26:59;3.65;;;1.60;;
56075;SDS011;41951;49.022;12.066;2022-09-09T15:29:25;4.07;;;1.98;;
56075;SDS011;41951;49.022;12.066;2022-09-09T15:31:51;6.03;;;1.50;;
56075;SDS011;41951;49.022;12.066;2022-09-09T15:34:18;4.20;;;1.50;;
56075;SDS011;41951;49.022;12.066;2022-09-09T15:36:44;3.83;;;1.30;;
56075;SDS011;41951;49.022;12.066;2022-09-09T15:39:14;4.50;;;1.80;;
56075;SDS011;41951;49.022;12.066;2022-09-09T15:41:42;4.15;;;1.30;;
56075;SDS011;41951;49.022;12.066;2022-09-09T15:44:08;4.00;;;1.20;;
56075;SDS011;41951;49.022;12.066;2022-09-09T15:51:33;4.03;;;1.10;;
56075;SDS011;41951;49.022;12.066;2022-09-09T15:53:59;2.55;;;1.25;;
56075;SDS011;41951;49.022;12.066;2022-09-09T15:56:26;2.42;;;1.23;;
56075;SDS011;41951;49.022;12.066;2022-09-09T15:58:53;1.95;;;1.05;;
56075;SDS011;41951;49.022;12.066;2022-09-09T16:01:20;4.55;;;1.63;;
56075;SDS011;41951;49.022;12.066;2022-09-09T16:03:46;4.00;;;1.13;;
56075;SDS011;41951;49.022;12.066;2022-09-09T16:06:15;9.95;;;6.53;;
56075;SDS011;41951;49.022;12.066;2022-09-09T16:08:43;4.05;;;1.30;;
56075;SDS011;41951;49.022;12.066;2022-09-09T16:11:14;2.30;;;1.10;;
56075;SDS011;41951;49.022;12.066;2022-09-09T16:13:41;2.65;;;1.23;;
56075;SDS011;41951;49.022;12.066;2022-09-09T16:16:09;4.32;;;1.63;;
56075;SDS011;41951;49.022;12.066;2022-09-09T16:18:37;3.33;;;1.10;;
56075;SDS011;41951;49.022;12.066;2022-09-09T16:21:06;2.78;;;0.93;;
56075;SDS011;41951;49.022;12.066;2022-09-09T16:23:33;2.17;;;0.93;;
56075;SDS011;41951;49.022;12.066;2022-09-09T16:26:00;2.75;;;1.10;;
56075;SDS011;41951;49.022;12.066;2022-09-09T16:28:26;2.88;;;1.05;;
56075;SDS011;41951;49.022;12.066;2022-09-09T16:30:52;3.45;;;1.20;;
56075;SDS011;41951;49.022;12.066;2022-09-09T16:33:18;6.55;;;2.13;;
56075;SDS011;41951;49.022;12.066;2022-09-09T16:35:44;5.65;;;1.00;;
56075;SDS011;41951;49.022;12.066;2022-09-09T16:38:09;2.88;;;1.17;;
56075;SDS011;41951;49.022;12.066;2022-09-09T16:40:36;4.75;;;1.20;;
56075;SDS011;41951;49.022;12.066;2022-09-09T16:43:02;4.40;;;1.10;;
56075;SDS011;41951;49.022;12.066;2022-09-09T16:45:29;4.13;;;0.95;;
56075;SDS011;41951;49.022;12.066;2022-09-09T16:47:55;3.42;;;1.20;;
56075;SDS011;41951;49.022;12.066;2022-09-09T16:50:20;3.70;;;1.20;;
56075;SDS011;41951;49.022;12.066;2022-09-09T16:52:47;3.45;;;1.05;;
56075;SDS011;41951;49.022;12.066;2022-09-09T16:55:13;5.63;;;1.58;;
56075;SDS011;41951;49.022;12.066;2022-09-09T16:57:53;2.90;;;1.10;;
56075;SDS011;41951;49.022;12.066;2022-09-09T17:00:23;4.45;;;3.10;;
56075;SDS011;41951;49.022;12.066;2022-09-09T17:02:48;7.20;;;3.30;;
56075;SDS011;41951;49.022;12.066;2022-09-09T17:05:14;10.52;;;5.43;;
56075;SDS011;41951;49.022;12.066;2022-09-09T17:07:40;17.60;;;10.43;;
56075;SDS011;41951;49.022;12.066;2022-09-09T17:10:05;15.52;;;8.30;;
56075;SDS011;41951;49.022;12.066;2022-09-09T17:12:33;4.97;;;1.80;;
56075;SDS011;41951;49.022;12.066;2022-09-09T17:15:00;4.43;;;1.20;;